createdAt,value
2019-04-05T00:01:12.561Z,10.75
2019-04-05T00:03:42.100Z,10.80
2019-04-05T00:06:11.804Z,10.84
2019-04-05T00:08:41.731Z,10.84
2019-04-05T00:11:11.494Z,10.55
2019-04-05T00:13:41.176Z,10.81
2019-04-05T00:16:11.514Z,10.76
2019-04-05T00:18:41.160Z,10.80
2019-04-05T00:21:10.809Z,10.85
2019-04-05T00:23:40.743Z,10.76
2019-04-05T00:26:10.496Z,10.76
2019-04-05T00:28:40.412Z,10.69
2019-04-05T00:31:10.286Z,10.67
2019-04-05T00:33:39.992Z,10.67
2019-04-05T00:36:09.678Z,10.67
2019-04-05T00:38:39.675Z,10.74
2019-04-05T00:41:09.290Z,10.72
2019-04-05T00:43:39.264Z,10.68
2019-04-05T00:46:09.187Z,10.72
2019-04-05T00:48:38.814Z,10.63
2019-04-05T00:51:08.595Z,10.52
2019-04-05T00:53:39.595Z,10.43
2019-04-05T00:56:09.599Z,10.43
2019-04-05T00:58:39.461Z,10.44
2019-04-05T01:01:09.279Z,10.43
2019-04-05T01:03:38.937Z,10.43
2019-04-05T01:06:08.851Z,10.45
2019-04-05T01:08:38.773Z,10.36
2019-04-05T01:11:08.748Z,10.32
2019-04-05T01:13:39.723Z,10.43
2019-04-05T01:16:09.299Z,10.46
2019-04-05T01:18:38.956Z,10.40
2019-04-05T01:21:12.038Z,10.23
2019-04-05T01:23:42.715Z,10.23
2019-04-05T01:26:14.291Z,10.21
2019-04-05T01:28:44.445Z,10.20
2019-04-05T01:31:14.070Z,10.16
2019-04-05T01:33:44.011Z,10.20
2019-04-05T01:36:13.837Z,10.18
2019-04-05T01:38:43.595Z,10.17
2019-04-05T01:41:13.370Z,10.08
2019-04-05T01:43:43.194Z,10.02
2019-04-05T01:46:13.164Z,10.02
2019-04-05T01:48:43.165Z,10.04
2019-04-05T01:51:13.080Z,10.01
2019-04-05T01:53:43.029Z,9.99
2019-04-05T01:56:13.077Z,10.03
2019-04-05T01:58:43.068Z,10.03
2019-04-05T02:01:12.953Z,10.03
2019-04-05T02:03:42.663Z,10.01
2019-04-05T02:06:13.248Z,10.04
2019-04-05T02:08:43.222Z,9.98
2019-04-05T02:11:12.955Z,9.98
2019-04-05T02:13:42.862Z,9.91
2019-04-05T02:16:12.922Z,9.91
2019-04-05T02:18:42.660Z,9.90
2019-04-05T02:21:12.434Z,9.92
2019-04-05T02:23:42.233Z,9.92
2019-04-05T02:26:12.256Z,9.92
2019-04-05T02:28:41.973Z,9.89
2019-04-05T02:31:11.831Z,9.85
2019-04-05T02:33:41.550Z,9.81
2019-04-05T02:36:11.719Z,9.76
2019-04-05T02:38:41.461Z,9.83
2019-04-05T02:41:11.749Z,9.83
2019-04-05T02:43:43.922Z,9.87
2019-04-05T02:46:24.028Z,8.86
2019-04-05T02:48:49.702Z,9.87
2019-04-05T02:51:22.717Z,9.86
2019-04-05T02:53:54.932Z,9.89
2019-04-05T02:56:26.378Z,9.87
2019-04-05T02:58:57.819Z,9.86
2019-04-05T03:01:28.643Z,9.84
2019-04-05T03:04:00.031Z,9.89
2019-04-05T03:06:30.215Z,9.80
2019-04-05T03:09:01.252Z,9.77
2019-04-05T03:11:34.171Z,9.76
2019-04-05T03:14:04.729Z,9.76
2019-04-05T03:16:41.660Z,9.77
2019-04-05T03:19:19.439Z,9.78
2019-04-05T03:21:54.390Z,9.75
2019-04-05T03:24:28.047Z,9.63
2019-04-05T03:27:03.216Z,9.59
2019-04-05T03:29:33.888Z,9.58
2019-04-05T03:32:04.377Z,9.44
2019-04-05T03:34:34.669Z,9.44
2019-04-05T03:37:05.280Z,9.38
2019-04-05T03:39:35.393Z,9.35
2019-04-05T03:42:05.437Z,9.32
2019-04-05T03:44:36.666Z,9.28
2019-04-05T03:47:06.912Z,9.28
2019-04-05T03:49:36.898Z,9.25
2019-04-05T03:52:08.274Z,9.21
2019-04-05T03:54:38.495Z,9.22
2019-04-05T03:57:08.631Z,9.20
2019-04-05T03:59:39.020Z,9.13
2019-04-05T04:02:09.588Z,9.09
2019-04-05T04:04:39.921Z,9.05
2019-04-05T04:07:10.153Z,8.94
2019-04-05T04:09:40.402Z,8.94
2019-04-05T04:12:12.264Z,8.94
2019-04-05T04:14:42.243Z,8.91
2019-04-05T04:17:13.717Z,8.89
2019-04-05T04:19:45.207Z,8.91
2019-04-05T04:22:27.342Z,8.90
2019-04-05T04:24:59.525Z,8.91
2019-04-05T04:27:30.615Z,8.87
2019-04-05T04:30:00.914Z,8.87
2019-04-05T04:32:31.317Z,8.82
2019-04-05T04:35:02.451Z,8.71
2019-04-05T04:37:32.168Z,8.68
2019-04-05T04:40:02.081Z,8.62
2019-04-05T04:42:32.532Z,8.64
2019-04-05T04:45:11.838Z,8.58
2019-04-05T04:47:34.923Z,8.47
2019-04-05T04:50:06.347Z,8.43
2019-04-05T04:52:36.475Z,8.47
2019-04-05T04:55:06.595Z,8.48
2019-04-05T04:57:37.270Z,8.50
2019-04-05T05:00:08.289Z,8.49
2019-04-05T05:02:38.711Z,8.56
2019-04-05T05:05:09.653Z,8.56
2019-04-05T05:07:40.361Z,8.56
2019-04-05T05:10:11.118Z,8.42
2019-04-05T05:12:41.280Z,8.42
2019-04-05T05:15:12.654Z,8.33
2019-04-05T05:17:43.288Z,8.29
2019-04-05T05:20:14.509Z,8.28
2019-04-05T05:22:44.877Z,8.18
2019-04-05T05:25:16.296Z,8.16
2019-04-05T05:27:46.719Z,8.19
2019-04-05T05:30:16.499Z,8.19
2019-04-05T05:32:46.603Z,8.18
2019-04-05T05:35:16.651Z,8.21
2019-04-05T05:37:47.609Z,8.19
2019-04-05T05:40:18.507Z,8.19
2019-04-05T05:42:48.522Z,8.25
2019-04-05T05:45:18.989Z,8.20
2019-04-05T05:47:52.101Z,8.17
2019-04-05T05:50:21.421Z,8.17
2019-04-05T05:52:51.958Z,8.07
2019-04-05T05:55:22.063Z,8.16
2019-04-05T05:57:54.877Z,8.16
2019-04-05T06:00:25.198Z,8.22
2019-04-05T06:02:55.525Z,8.22
2019-04-05T06:05:25.622Z,8.27
2019-04-05T06:07:55.739Z,8.26
2019-04-05T06:10:25.854Z,8.24
2019-04-05T06:12:58.631Z,8.27
2019-04-05T06:15:28.026Z,8.22
2019-04-05T06:20:30.537Z,8.26
2019-04-05T06:23:00.728Z,8.30
2019-04-05T06:25:30.666Z,8.35
2019-04-05T06:28:00.426Z,8.39
2019-04-05T06:30:30.449Z,8.46
2019-04-05T06:33:00.538Z,8.55
2019-04-05T06:35:30.076Z,8.66
2019-04-05T06:35:39.483Z,8.27
2019-04-05T06:38:00.034Z,8.79
2019-04-05T06:40:40.060Z,8.81
2019-04-05T06:43:01.195Z,8.78
2019-04-05T06:45:30.766Z,8.85
2019-04-05T06:48:00.488Z,8.94
2019-04-05T06:50:30.290Z,8.97
2019-04-05T06:52:59.940Z,8.97
2019-04-05T06:55:29.827Z,9.21
2019-04-05T06:57:59.896Z,9.25
2019-04-05T07:00:30.745Z,9.25
2019-04-05T07:03:01.329Z,9.33
2019-04-05T07:05:31.368Z,9.55
2019-04-05T07:08:01.684Z,9.55
2019-04-05T07:10:32.298Z,9.64
2019-04-05T07:13:02.479Z,9.64
2019-04-05T07:15:32.257Z,9.68
2019-04-05T07:18:02.543Z,9.73
2019-04-05T07:20:32.307Z,9.86
2019-04-05T07:23:01.889Z,9.86
2019-04-05T07:25:32.030Z,9.95
2019-04-05T07:28:02.018Z,9.95
2019-04-05T07:30:32.708Z,10.05
2019-04-05T07:33:02.742Z,10.20
2019-04-05T07:35:33.738Z,10.23
2019-04-05T07:38:03.819Z,10.23
2019-04-05T07:40:33.501Z,10.31
2019-04-05T07:43:03.376Z,10.34
2019-04-05T07:45:33.481Z,10.38
2019-04-05T07:48:03.354Z,10.43
2019-04-05T07:50:33.223Z,10.48
2019-04-05T07:53:04.105Z,10.48
2019-04-05T07:55:34.206Z,10.59
2019-04-05T07:58:04.115Z,10.73
2019-04-05T08:00:54.702Z,10.73
2019-04-05T08:03:25.695Z,10.99
2019-04-05T08:05:56.278Z,10.99
2019-04-05T08:08:48.118Z,11.13
2019-04-05T08:11:18.952Z,11.22
2019-04-05T08:13:50.161Z,11.27
2019-04-05T08:16:20.834Z,11.39
2019-04-05T08:18:57.529Z,11.47
2019-04-05T08:21:23.195Z,11.61
2019-04-05T08:23:53.155Z,11.74
2019-04-05T08:26:22.941Z,11.86
2019-04-05T08:28:53.253Z,12.03
2019-04-05T08:31:23.137Z,12.05
2019-04-05T08:33:53.437Z,12.20
2019-04-05T08:36:23.702Z,12.26
2019-04-05T08:38:53.727Z,12.28
2019-04-05T08:41:23.542Z,12.55
2019-04-05T08:43:53.506Z,12.92
2019-04-05T08:46:23.387Z,12.72
2019-04-05T08:48:53.565Z,12.63
2019-04-05T08:51:23.718Z,12.64
2019-04-05T08:53:53.639Z,12.60
2019-04-05T08:56:23.331Z,12.65
2019-04-05T08:58:53.612Z,12.79
2019-04-05T09:01:23.467Z,12.85
2019-04-05T09:03:53.478Z,12.88
2019-04-05T09:06:23.766Z,12.92
2019-04-05T09:08:53.943Z,12.99
2019-04-05T09:11:23.675Z,13.08
2019-04-05T09:13:53.680Z,13.16
2019-04-05T09:16:23.326Z,13.19
2019-04-05T09:18:53.394Z,13.24
2019-04-05T09:21:23.265Z,13.31
2019-04-05T09:23:53.232Z,13.42
2019-04-05T09:26:23.295Z,13.58
2019-04-05T09:28:53.100Z,13.74
2019-04-05T09:31:22.896Z,13.89
2019-04-05T09:33:52.976Z,14.04
2019-04-05T09:36:22.920Z,14.25
2019-04-05T09:38:52.871Z,14.53
2019-04-05T09:41:22.574Z,14.96
2019-04-05T09:43:52.244Z,15.20
2019-04-05T09:46:21.816Z,15.63
2019-04-05T09:48:51.631Z,16.02
2019-04-05T09:51:21.899Z,16.29
2019-04-05T09:53:51.727Z,16.47
2019-04-05T09:56:21.722Z,16.57
2019-04-05T09:58:51.433Z,16.66
2019-04-05T10:01:21.441Z,16.70
2019-04-05T10:03:51.407Z,16.75
2019-04-05T10:06:21.570Z,16.80
2019-04-05T10:08:51.124Z,16.93
2019-04-05T10:11:21.021Z,16.86
2019-04-05T10:13:51.078Z,16.87
2019-04-05T10:16:22.124Z,16.94
2019-04-05T10:18:52.082Z,16.88
2019-04-05T10:21:21.993Z,16.95
2019-04-05T10:23:51.655Z,17.05
2019-04-05T10:26:21.251Z,16.99
2019-04-05T10:28:51.247Z,17.02
2019-04-05T10:31:20.807Z,17.11
2019-04-05T10:33:50.493Z,17.22
2019-04-05T10:36:20.629Z,17.17
2019-04-05T10:38:50.589Z,17.29
2019-04-05T10:41:22.926Z,17.29
2019-04-05T10:43:51.809Z,17.20
2019-04-05T10:46:21.505Z,17.01
2019-04-05T10:48:51.265Z,17.08
2019-04-05T10:51:21.343Z,17.07
2019-04-05T10:53:51.291Z,17.15
2019-04-05T10:56:21.282Z,17.17
2019-04-05T10:58:51.121Z,17.19
2019-04-05T11:01:20.805Z,17.18
2019-04-05T11:03:50.945Z,17.11
2019-04-05T11:06:20.890Z,17.05
2019-04-05T11:08:50.969Z,17.19
2019-04-05T11:11:20.998Z,17.35
2019-04-05T11:13:50.841Z,17.39
2019-04-05T11:16:20.616Z,17.49
2019-04-05T11:18:50.227Z,17.54
2019-04-05T11:21:20.070Z,17.51
2019-04-05T11:23:49.687Z,16.63
2019-04-05T11:26:19.948Z,17.29
2019-04-05T11:28:49.905Z,17.30
2019-04-05T11:31:19.534Z,17.23
2019-04-05T11:33:49.331Z,17.27
2019-04-05T11:36:20.299Z,17.29
2019-04-05T11:38:51.029Z,17.29
2019-04-05T11:41:22.972Z,17.34
2019-04-05T11:43:55.454Z,17.31
2019-04-05T11:46:26.237Z,17.29
2019-04-05T11:48:57.124Z,17.36
2019-04-05T11:51:27.429Z,17.38
2019-04-05T11:53:57.415Z,17.36
2019-04-05T11:56:27.627Z,17.40
2019-04-05T11:58:57.705Z,17.44
2019-04-05T12:01:32.869Z,17.51
2019-04-05T12:04:02.741Z,17.60
2019-04-05T12:06:35.054Z,17.63
2019-04-05T12:09:06.906Z,17.73
2019-04-05T12:11:37.285Z,17.76
2019-04-05T12:14:06.891Z,17.85
2019-04-05T12:16:36.751Z,17.97
2019-04-05T12:19:06.747Z,17.96
2019-04-05T12:21:36.344Z,17.96
2019-04-05T12:24:06.185Z,17.85
2019-04-05T12:26:36.199Z,17.89
2019-04-05T12:29:06.007Z,17.97
2019-04-05T12:31:35.875Z,17.98
2019-04-05T12:34:05.498Z,17.99
2019-04-05T12:36:35.320Z,18.10
2019-04-05T12:39:08.239Z,18.17
2019-04-05T12:41:40.986Z,18.20
2019-04-05T12:44:14.310Z,18.08
2019-04-05T12:46:43.473Z,18.13
2019-04-05T12:49:15.317Z,18.16
2019-04-05T12:51:45.591Z,18.21
2019-04-05T12:54:16.224Z,18.22
2019-04-05T12:56:46.048Z,18.24
2019-04-05T12:59:15.810Z,18.26
2019-04-05T13:01:46.564Z,18.29
2019-04-05T13:04:16.531Z,18.29
2019-04-05T13:06:46.486Z,18.32
2019-04-05T13:09:17.038Z,18.31
2019-04-05T13:11:46.996Z,18.34
2019-04-05T13:14:16.714Z,18.34
2019-04-05T13:16:49.423Z,18.39
2019-04-05T13:19:18.363Z,18.39
2019-04-05T13:21:48.204Z,18.37
2019-04-05T13:24:17.916Z,18.41
2019-04-05T13:26:48.078Z,18.43
2019-04-05T13:29:19.659Z,18.44
2019-04-05T13:31:49.477Z,18.41
2019-04-05T13:34:19.640Z,18.40
2019-04-05T13:36:49.344Z,18.38
2019-04-05T13:39:19.154Z,18.39
2019-04-05T13:41:49.368Z,18.38
2019-04-05T13:44:19.133Z,18.40
2019-04-05T13:46:48.708Z,18.39
2019-04-05T13:49:18.707Z,18.41
2019-04-05T13:51:48.354Z,18.43
2019-04-05T13:54:18.007Z,18.43
2019-04-05T13:56:47.987Z,18.35
2019-04-05T13:59:17.845Z,18.33
2019-04-05T14:01:50.920Z,18.46
2019-04-05T14:04:20.999Z,18.43
2019-04-05T14:06:53.397Z,18.43
2019-04-05T14:09:22.829Z,18.43
2019-04-05T14:11:52.873Z,18.51
2019-04-05T14:14:22.520Z,18.84
2019-04-05T14:16:54.191Z,18.70
2019-04-05T14:19:23.953Z,18.65
2019-04-05T14:21:53.847Z,18.65
2019-04-05T14:24:24.318Z,18.64
2019-04-05T14:26:54.458Z,18.82
2019-04-05T14:29:24.477Z,18.72
2019-04-05T14:31:54.345Z,18.60
2019-04-05T14:34:24.886Z,18.56
2019-04-05T14:36:54.468Z,18.53
2019-04-05T14:39:24.746Z,18.50
2019-04-05T14:41:55.016Z,18.47
2019-04-05T14:44:24.872Z,18.44
2019-04-05T14:46:55.860Z,18.40
2019-04-05T14:49:30.303Z,18.33
2019-04-05T14:52:00.737Z,18.30
2019-04-05T14:54:30.853Z,18.24
2019-04-05T14:57:05.446Z,18.28
2019-04-05T14:59:32.885Z,18.26
2019-04-05T15:02:02.671Z,18.26
2019-04-05T15:04:32.342Z,18.19
2019-04-05T15:07:02.108Z,18.16
2019-04-05T15:09:31.883Z,18.10
2019-04-05T15:12:01.904Z,18.08
2019-04-05T15:14:31.749Z,18.04
2019-04-05T15:17:01.625Z,18.02
2019-04-05T15:19:31.411Z,18.00
2019-04-05T15:22:05.984Z,18.00
2019-04-05T15:24:32.812Z,17.99
2019-04-05T15:27:02.962Z,17.99
2019-04-05T15:29:32.592Z,17.98
2019-04-05T15:32:02.885Z,17.99
2019-04-05T15:34:33.018Z,18.02
2019-04-05T15:37:02.699Z,18.03
2019-04-05T15:39:32.379Z,17.98
2019-04-05T15:42:02.675Z,17.96
2019-04-05T15:44:32.975Z,17.93
2019-04-05T15:47:02.622Z,17.95
2019-04-05T15:49:32.490Z,17.93
2019-04-05T15:52:02.227Z,17.93
2019-04-05T15:54:33.350Z,17.95
2019-04-05T15:57:04.431Z,17.99
2019-04-05T15:59:34.177Z,17.98
2019-04-05T16:02:04.430Z,17.93
2019-04-05T16:04:34.798Z,17.92
2019-04-05T16:07:04.792Z,17.87
2019-04-05T16:09:34.539Z,17.84
2019-04-05T16:12:05.172Z,17.85
2019-04-05T16:14:34.864Z,17.82
2019-04-05T16:17:04.695Z,17.78
2019-04-05T16:19:36.049Z,17.76
2019-04-05T16:22:05.808Z,17.73
2019-04-05T16:24:35.779Z,17.76
2019-04-05T16:27:05.938Z,17.60
2019-04-05T16:29:35.635Z,17.75
2019-04-05T16:32:06.862Z,17.76
2019-04-05T16:34:37.010Z,17.73
2019-04-05T16:37:07.193Z,17.69
2019-04-05T16:39:36.888Z,17.60
2019-04-05T16:42:10.102Z,17.57
2019-04-05T16:44:38.591Z,17.56
2019-04-05T16:47:08.733Z,17.51
2019-04-05T16:49:38.543Z,17.50
2019-04-05T16:52:08.059Z,17.47
2019-04-05T16:54:38.101Z,17.36
2019-04-05T16:57:08.124Z,17.36
2019-04-05T16:59:37.910Z,17.33
2019-04-05T17:02:08.223Z,16.70
2019-04-05T17:04:37.952Z,17.27
2019-04-05T17:07:07.734Z,17.21
2019-04-05T17:09:37.757Z,17.19
2019-04-05T17:12:07.706Z,17.15
2019-04-05T17:14:37.511Z,17.14
2019-04-05T17:17:07.406Z,17.10
2019-04-05T17:19:37.495Z,17.09
2019-04-05T17:22:07.210Z,17.03
2019-04-05T17:24:36.769Z,16.97
2019-04-05T17:27:06.774Z,16.92
2019-04-05T17:29:36.417Z,16.92
2019-04-05T17:32:06.346Z,16.86
2019-04-05T17:34:37.369Z,16.80
2019-04-05T17:37:07.450Z,16.75
2019-04-05T17:39:37.492Z,16.76
2019-04-05T17:42:07.746Z,16.71
2019-04-05T17:44:37.951Z,16.66
2019-04-05T17:47:07.672Z,16.60
2019-04-05T17:49:37.684Z,16.58
2019-04-05T17:52:07.722Z,16.56
2019-04-05T17:54:37.478Z,16.52
2019-04-05T17:57:07.597Z,16.47
2019-04-05T17:59:38.594Z,16.43
2019-04-05T18:02:08.625Z,16.38
2019-04-05T18:04:39.251Z,16.37
2019-04-05T18:07:09.495Z,16.34
2019-04-05T18:09:39.143Z,16.30
2019-04-05T18:12:09.061Z,16.25
2019-04-05T18:14:39.136Z,16.20
2019-04-05T18:17:08.741Z,16.17
2019-04-05T18:19:38.657Z,16.14
2019-04-05T18:22:08.714Z,16.11
2019-04-05T18:24:38.472Z,16.07
2019-04-05T18:27:08.336Z,16.07
2019-04-05T18:29:38.299Z,16.01
2019-04-05T18:32:08.169Z,15.98
2019-04-05T18:34:37.726Z,15.97
2019-04-05T18:37:07.638Z,15.96
2019-04-05T18:39:37.481Z,15.96
2019-04-05T18:42:07.333Z,15.93
2019-04-05T18:44:37.385Z,15.92
2019-04-05T18:47:15.550Z,15.91
2019-04-05T18:49:45.755Z,15.87
2019-04-05T18:52:15.473Z,15.89
2019-04-05T18:54:45.279Z,15.88
2019-04-05T18:57:15.499Z,15.84
2019-04-05T18:59:45.353Z,15.76
2019-04-05T19:02:14.923Z,15.67
2019-04-05T19:04:44.839Z,15.66
2019-04-05T19:07:14.539Z,15.55
2019-04-05T19:09:44.561Z,15.48
2019-04-05T19:12:15.035Z,15.46
2019-04-05T19:14:44.916Z,15.40
2019-04-05T19:17:23.758Z,15.40
2019-04-05T19:19:46.670Z,15.41
2019-04-05T19:22:16.231Z,15.29
2019-04-05T19:24:45.882Z,15.23
2019-04-05T19:27:15.646Z,15.20
2019-04-05T19:29:45.439Z,15.18
2019-04-05T19:49:57.380Z,14.85
2019-04-05T19:52:29.982Z,14.78
2019-04-05T19:55:00.278Z,14.73
2019-04-05T19:57:32.352Z,14.70
2019-04-05T20:00:02.549Z,14.58
2019-04-05T20:02:32.359Z,14.59
2019-04-05T20:05:02.382Z,14.55
2019-04-05T20:07:32.576Z,14.49
2019-04-05T20:10:02.485Z,14.28
2019-04-05T20:12:32.124Z,13.54
2019-04-05T20:15:02.160Z,14.48
2019-04-05T20:17:34.041Z,14.47
2019-04-05T20:20:04.922Z,14.35
2019-04-05T20:22:35.127Z,14.29
2019-04-05T20:25:05.789Z,14.26
2019-04-05T20:27:35.778Z,14.15
2019-04-05T20:30:07.009Z,14.05
2019-04-05T20:32:37.185Z,13.97
2019-04-05T20:35:07.337Z,14.01
2019-04-05T20:37:36.885Z,13.93
2019-04-05T20:40:07.830Z,13.87
2019-04-05T20:42:37.762Z,13.85
2019-04-05T20:45:08.015Z,13.78
2019-04-05T20:47:38.226Z,13.77
2019-04-05T20:50:08.731Z,13.71
2019-04-05T20:52:38.390Z,13.62
2019-04-05T20:55:08.975Z,13.49
2019-04-05T20:57:38.710Z,13.48
2019-04-05T21:00:10.547Z,13.51
2019-04-05T21:02:40.459Z,13.42
2019-04-05T21:05:10.315Z,13.38
2019-04-05T21:07:40.361Z,13.26
2019-04-05T21:10:10.469Z,13.27
2019-04-05T21:12:40.276Z,13.32
2019-04-05T21:15:10.633Z,13.24
2019-04-05T21:17:40.384Z,13.21
2019-04-05T21:20:10.593Z,13.16
2019-04-05T21:22:40.486Z,13.10
2019-04-05T21:25:10.451Z,12.14
2019-04-05T21:27:39.956Z,12.04
2019-04-05T21:30:09.989Z,13.09
2019-04-05T21:32:40.041Z,12.96
2019-04-05T21:35:10.034Z,12.80
2019-04-05T21:37:39.688Z,12.78
2019-04-05T21:40:09.958Z,12.72
2019-04-05T21:42:39.754Z,12.72
2019-04-05T21:45:09.641Z,12.74
2019-04-05T21:47:39.752Z,12.69
2019-04-05T21:50:11.084Z,12.71
2019-04-05T21:52:41.010Z,12.75
2019-04-05T21:55:11.081Z,12.74
2019-04-05T21:57:41.025Z,12.68
2019-04-05T22:00:17.653Z,12.71
2019-04-05T22:02:47.427Z,12.69
2019-04-05T22:05:17.579Z,12.69
2019-04-05T22:07:47.666Z,12.65
2019-04-05T22:10:17.492Z,12.64
2019-04-05T22:12:47.328Z,11.55
2019-04-05T22:15:17.296Z,12.47
2019-04-05T22:17:46.892Z,12.40
2019-04-05T22:20:16.690Z,12.45
2019-04-05T22:22:46.810Z,12.49
2019-04-05T22:25:16.498Z,12.44
2019-04-05T22:27:46.193Z,12.37
2019-04-05T22:30:16.077Z,12.37
2019-04-05T22:32:45.966Z,12.38
2019-04-05T22:35:15.982Z,12.41
2019-04-05T22:37:45.732Z,12.34
2019-04-05T22:40:15.902Z,12.42
2019-04-05T22:42:45.932Z,12.34
2019-04-05T22:45:15.764Z,12.21
2019-04-05T22:47:45.264Z,12.21
2019-04-05T22:50:15.460Z,12.29
2019-04-05T22:52:45.176Z,12.25
2019-04-05T22:55:14.764Z,12.17
2019-04-05T22:57:44.789Z,12.15
2019-04-05T23:00:15.890Z,12.04
2019-04-05T23:02:45.860Z,12.04
2019-04-05T23:05:15.581Z,12.11
2019-04-05T23:07:45.221Z,12.08
2019-04-05T23:10:16.601Z,11.98
2019-04-05T23:12:46.179Z,11.99
2019-04-05T23:15:16.014Z,12.02
2019-04-05T23:17:45.843Z,12.05
2019-04-05T23:20:15.714Z,12.02
2019-04-05T23:22:45.617Z,12.07
2019-04-05T23:25:21.851Z,12.10
2019-04-05T23:27:47.188Z,12.02
2019-04-05T23:30:18.452Z,11.94
2019-04-05T23:32:48.184Z,11.88
2019-04-05T23:35:17.787Z,11.77
2019-04-05T23:37:48.146Z,11.68
2019-04-05T23:40:17.727Z,11.74
2019-04-05T23:42:47.526Z,11.76
2019-04-05T23:45:17.509Z,11.81
2019-04-05T23:47:47.201Z,11.76
2019-04-05T23:50:17.087Z,11.75
2019-04-05T23:52:47.076Z,11.58
2019-04-05T23:55:17.141Z,11.55
2019-04-05T23:57:47.084Z,11.54
